Time;durP1;ratioP1;P1;durP2;ratioP2;P2;SDS_P1;SDS_P2;PMS_P1;PMS_P2;Temp;Humidity;BMP_temperature;BMP_pressure;BME280_temperature;BME280_humidity;BME280_pressure;Samples;Min_cycle;Max_cycle;Signal;HPM_P1;HPM_P2
2021/11/30 00:02:16;;;;;;;21.60;8.70;;;;;;;0.90;91.41;99234.66;102760;1320;25528;-57
2021/11/30 00:04:47;;;;;;;27.90;8.30;;;;;;;0.90;91.29;99236.16;102756;1320;22581;-58
2021/11/30 00:07:18;;;;;;;24.30;8.00;;;;;;;0.90;91.43;99237.19;102758;1316;22566;-57
2021/11/30 00:12:38;;;;;;;23.50;8.40;;;;;;;0.90;91.25;99235.14;102706;1316;22595;-59
2021/11/30 00:15:10;;;;;;;23.20;7.40;;;;;;;0.90;91.23;99239.76;102735;1316;22637;-58
2021/11/30 00:17:41;;;;;;;20.70;7.50;;;;;;;0.91;91.26;99238.97;103046;1316;23121;-58
2021/11/30 00:20:13;;;;;;;25.20;7.90;;;;;;;0.91;91.28;99241.13;102810;1319;22651;-59
2021/11/30 00:22:44;;;;;;;20.60;7.80;;;;;;;0.92;91.25;99239.87;103037;1316;22558;-58
2021/11/30 00:25:15;;;;;;;26.50;8.60;;;;;;;0.92;91.12;99244.43;102745;1318;22778;-57
2021/11/30 00:27:46;;;;;;;20.80;7.90;;;;;;;0.93;91.11;99247.00;102795;1316;22647;-58
2021/11/30 00:30:17;;;;;;;21.10;7.40;;;;;;;0.94;91.09;99252.69;102800;1316;23169;-57
2021/11/30 00:32:48;;;;;;;22.00;8.00;;;;;;;0.94;91.00;99260.05;102824;1322;25633;-58
2021/11/30 00:35:23;;;;;;;24.50;9.20;;;;;;;0.96;91.08;99258.75;102855;1315;24231;-59
2021/11/30 00:37:54;;;;;;;27.10;9.30;;;;;;;0.96;91.10;99259.67;102890;1316;22761;-58
2021/11/30 00:40:25;;;;;;;31.10;10.10;;;;;;;0.96;91.02;99260.64;102853;1318;24320;-59
2021/11/30 00:42:59;;;;;;;21.70;8.10;;;;;;;0.97;90.97;99264.55;102851;1315;24243;-59
2021/11/30 00:45:38;;;;;;;21.60;7.70;;;;;;;0.96;91.02;99259.14;102666;1316;22683;-59
2021/11/30 00:48:11;;;;;;;20.20;6.60;;;;;;;0.97;90.95;99256.21;102819;1319;22584;-58
2021/11/30 00:50:45;;;;;;;24.10;8.60;;;;;;;0.98;90.87;99253.59;102853;1322;22647;-58
2021/11/30 00:53:16;;;;;;;19.70;7.50;;;;;;;0.98;90.83;99255.23;102756;1316;22610;-57
2021/11/30 00:55:47;;;;;;;19.80;6.10;;;;;;;0.97;90.76;99252.98;102767;1319;23195;-58
2021/11/30 00:58:19;;;;;;;13.60;4.50;;;;;;;0.97;90.57;99255.83;102805;1315;26714;-56
2021/11/30 01:00:49;;;;;;;17.30;4.80;;;;;;;0.96;90.48;99256.95;102764;1317;25383;-57
2021/11/30 01:03:21;;;;;;;18.40;5.60;;;;;;;0.94;90.40;99255.83;102834;1315;22782;-58
2021/11/30 01:05:52;;;;;;;13.40;3.50;;;;;;;0.91;90.41;99260.07;102788;1322;23526;-58
2021/11/30 01:08:23;;;;;;;17.20;5.30;;;;;;;0.89;90.28;99262.48;102868;1316;24735;-59
2021/11/30 01:10:54;;;;;;;14.40;4.30;;;;;;;0.88;90.35;99264.96;102712;1316;22603;-58
2021/11/30 01:13:27;;;;;;;16.80;5.10;;;;;;;0.86;90.43;99267.52;103021;1316;22607;-58
2021/11/30 01:15:59;;;;;;;17.70;4.90;;;;;;;0.85;90.40;99268.35;102861;1316;22626;-57
2021/11/30 01:18:31;;;;;;;14.60;4.80;;;;;;;0.83;90.31;99271.77;102673;1316;25248;-58
2021/11/30 01:21:05;;;;;;;16.90;5.60;;;;;;;0.81;90.28;99271.97;102802;1317;24450;-58
2021/11/30 01:23:36;;;;;;;14.50;3.70;;;;;;;0.80;90.27;99267.14;102833;1316;22593;-58
2021/11/30 01:26:07;;;;;;;15.80;3.80;;;;;;;0.80;90.13;99270.30;102635;1315;24358;-58
2021/11/30 01:28:38;;;;;;;10.70;2.70;;;;;;;0.78;90.07;99270.09;102779;1317;24383;-58
2021/11/30 01:31:09;;;;;;;17.90;5.50;;;;;;;0.77;90.06;99271.08;102725;1315;25520;-56
2021/11/30 01:33:41;;;;;;;12.90;3.60;;;;;;;0.75;89.95;99269.25;102769;1319;25322;-58
2021/11/30 01:36:13;;;;;;;12.60;3.00;;;;;;;0.74;89.83;99273.05;102702;1321;24283;-58
2021/11/30 01:38:44;;;;;;;9.00;2.60;;;;;;;0.72;89.69;99271.83;102767;1318;22580;-58
2021/11/30 01:41:15;;;;;;;11.70;2.60;;;;;;;0.72;89.45;99270.58;102604;1315;22644;-58
2021/11/30 01:43:47;;;;;;;12.00;2.90;;;;;;;0.72;89.50;99278.06;102874;1317;22583;-58
2021/11/30 01:46:27;;;;;;;13.70;3.00;;;;;;;0.72;89.48;99275.52;102761;1316;22580;-58
2021/11/30 01:49:16;;;;;;;10.70;2.50;;;;;;;0.72;89.40;99283.55;102625;1316;25404;-58
2021/11/30 01:51:48;;;;;;;12.80;3.30;;;;;;;0.72;89.32;99288.73;102839;1315;25344;-58
2021/11/30 01:54:19;;;;;;;8.60;2.50;;;;;;;0.71;89.41;99286.08;102752;1313;22561;-54
2021/11/30 01:56:50;;;;;;;13.20;3.00;;;;;;;0.70;89.30;99288.37;102689;1318;24228;-55
2021/11/30 01:59:21;;;;;;;11.40;3.00;;;;;;;0.70;89.17;99295.05;102665;1313;24064;-57
2021/11/30 02:01:53;;;;;;;9.90;2.20;;;;;;;0.70;89.17;99296.41;102693;1316;24320;-58
2021/11/30 02:04:24;;;;;;;8.10;2.40;;;;;;;0.69;89.08;99299.48;102960;1317;24240;-56
2021/11/30 02:06:55;;;;;;;7.90;1.50;;;;;;;0.69;89.01;99303.48;102704;1319;24374;-58
2021/11/30 02:09:27;;;;;;;9.20;2.30;;;;;;;0.69;88.98;99302.62;102726;1316;22787;-55
2021/11/30 02:11:58;;;;;;;11.80;2.80;;;;;;;0.69;89.09;99303.56;102763;1317;24352;-58
2021/11/30 02:14:29;;;;;;;9.80;2.20;;;;;;;0.69;89.09;99305.61;102684;1316;22687;-58
2021/11/30 02:17:01;;;;;;;10.20;2.50;;;;;;;0.68;88.98;99306.02;102820;1313;22596;-57
2021/11/30 02:19:48;;;;;;;13.90;3.40;;;;;;;0.66;89.08;99301.50;102895;1314;22581;-58
2021/11/30 02:22:19;;;;;;;9.70;2.60;;;;;;;0.65;88.90;99299.29;102721;1316;22672;-54
2021/11/30 02:24:51;;;;;;;13.00;3.00;;;;;;;0.64;88.81;99303.39;102666;1320;22678;-56
2021/11/30 02:27:24;;;;;;;7.90;1.70;;;;;;;0.62;88.84;99292.55;102652;1316;22703;-55
2021/11/30 02:29:56;;;;;;;10.80;2.60;;;;;;;0.59;88.75;99293.95;102809;1319;22565;-54
2021/11/30 02:32:27;;;;;;;10.30;2.50;;;;;;;0.57;88.50;99291.05;102654;1317;22593;-53
2021/11/30 02:34:59;;;;;;;12.60;2.40;;;;;;;0.54;88.53;99289.47;102504;1323;22602;-52
2021/11/30 02:37:36;;;;;;;12.90;2.50;;;;;;;0.51;88.63;99285.64;102707;1323;24002;-56
2021/11/30 02:40:12;;;;;;;13.20;2.50;;;;;;;0.48;88.66;99280.54;102706;1317;22690;-56
2021/11/30 02:42:43;;;;;;;12.40;3.10;;;;;;;0.45;88.69;99278.16;102768;1316;24522;-53
2021/11/30 02:45:14;;;;;;;13.70;2.70;;;;;;;0.43;88.60;99275.27;102652;1316;25672;-52
2021/11/30 02:47:46;;;;;;;11.40;2.30;;;;;;;0.41;88.65;99283.01;102514;1324;22650;-56
2021/11/30 02:50:17;;;;;;;12.80;3.40;;;;;;;0.38;88.70;99284.73;102740;1318;25322;-55
2021/11/30 02:52:48;;;;;;;11.10;3.30;;;;;;;0.36;88.71;99281.97;102653;1321;22583;-54
2021/11/30 02:55:20;;;;;;;12.40;3.00;;;;;;;0.34;88.84;99279.90;102655;1316;22816;-55
2021/11/30 02:57:51;;;;;;;11.90;2.50;;;;;;;0.32;88.85;99282.31;102754;1316;24309;-53
2021/11/30 03:00:23;;;;;;;11.40;2.80;;;;;;;0.30;88.96;99283.99;102613;1316;25477;-57
2021/11/30 03:02:53;;;;;;;11.30;2.60;;;;;;;0.29;88.96;99285.75;102785;1316;26559;-55
2021/11/30 03:05:25;;;;;;;13.00;3.70;;;;;;;0.28;89.00;99290.00;102605;1316;24221;-55
2021/11/30 03:07:56;;;;;;;13.90;3.80;;;;;;;0.28;89.12;99291.67;102704;1316;22585;-55
2021/11/30 03:10:27;;;;;;;18.00;5.30;;;;;;;0.28;89.07;99290.56;102626;1321;24229;-54
2021/11/30 03:12:58;;;;;;;15.00;4.60;;;;;;;0.29;89.17;99289.52;102552;1316;25671;-53
2021/11/30 03:15:29;;;;;;;22.50;5.60;;;;;;;0.30;89.24;99286.43;102604;1321;25272;-55
2021/11/30 03:18:01;;;;;;;16.10;5.60;;;;;;;0.31;89.28;99280.99;102630;1317;23301;-53
2021/11/30 03:20:32;;;;;;;18.50;5.40;;;;;;;0.33;89.36;99277.02;102832;1322;22596;-53
2021/11/30 03:23:03;;;;;;;17.60;5.40;;;;;;;0.35;89.37;99269.74;102752;1321;25266;-54
2021/11/30 03:25:35;;;;;;;16.70;5.80;;;;;;;0.37;89.37;99265.92;102575;1316;25410;-55
2021/11/30 03:28:06;;;;;;;17.20;5.70;;;;;;;0.39;89.40;99264.09;102728;1321;22686;-56
2021/11/30 03:30:41;;;;;;;17.30;5.00;;;;;;;0.41;89.38;99259.40;102538;1321;22647;-55
2021/11/30 03:36:00;;;;;;;15.40;5.10;;;;;;;0.41;89.20;99262.04;102461;1317;26531;-55
2021/11/30 03:38:30;;;;;;;15.50;5.10;;;;;;;0.42;89.22;99256.92;102451;1316;23312;-55
2021/11/30 03:41:02;;;;;;;14.90;4.40;;;;;;;0.44;89.20;99256.95;102393;1319;24227;-56
2021/11/30 03:43:33;;;;;;;17.80;6.20;;;;;;;0.45;89.31;99255.20;102662;1316;22607;-57
2021/11/30 03:46:05;;;;;;;19.00;5.60;;;;;;;0.47;89.31;99260.33;102494;1321;22592;-54
2021/11/30 03:48:37;;;;;;;23.10;7.50;;;;;;;0.48;89.31;99257.92;102482;1317;22626;-54
2021/11/30 03:51:07;;;;;;;19.80;7.30;;;;;;;0.50;89.44;99258.65;102464;1321;24317;-56
2021/11/30 03:53:38;;;;;;;21.50;7.30;;;;;;;0.51;89.49;99257.30;102608;1322;22565;-55
2021/11/30 03:56:09;;;;;;;19.90;7.40;;;;;;;0.53;89.47;99257.63;102472;1316;25334;-56
2021/11/30 03:58:41;;;;;;;17.80;5.30;;;;;;;0.55;89.45;99259.40;102628;1316;22597;-54
2021/11/30 04:01:13;;;;;;;15.60;5.50;;;;;;;0.55;89.42;99256.02;102387;1316;22769;-55
2021/11/30 04:03:44;;;;;;;16.10;5.50;;;;;;;0.57;89.43;99254.95;102638;1316;23144;-55
2021/11/30 04:06:15;;;;;;;18.20;4.90;;;;;;;0.58;89.48;99255.05;102535;1316;22606;-56
2021/11/30 04:08:46;;;;;;;15.30;5.20;;;;;;;0.59;89.62;99255.04;102654;1320;24212;-53
2021/11/30 04:11:20;;;;;;;15.50;5.10;;;;;;;0.60;89.61;99255.25;102454;1316;22854;-55
2021/11/30 04:13:51;;;;;;;16.50;5.30;;;;;;;0.60;89.61;99255.46;102775;1317;25645;-55
2021/11/30 04:16:22;;;;;;;16.90;5.60;;;;;;;0.61;89.69;99251.29;102636;1317;23113;-55
2021/11/30 04:18:53;;;;;;;19.70;6.40;;;;;;;0.61;89.81;99254.73;102458;1316;24225;-57
2021/11/30 04:21:24;;;;;;;22.30;6.40;;;;;;;0.60;89.91;99254.20;102665;1317;22690;-56
2021/11/30 04:23:55;;;;;;;20.20;7.00;;;;;;;0.59;90.02;99255.04;102610;1320;22605;-53
2021/11/30 04:26:27;;;;;;;22.20;6.90;;;;;;;0.57;90.10;99253.38;102492;1317;24322;-56
2021/11/30 04:28:58;;;;;;;22.80;8.30;;;;;;;0.56;90.22;99254.36;102523;1316;25468;-52
2021/11/30 04:31:31;;;;;;;24.80;8.00;;;;;;;0.55;90.27;99254.91;102672;1320;24222;-52
2021/11/30 04:34:03;;;;;;;25.10;8.60;;;;;;;0.54;90.34;99250.16;102634;1321;22716;-55
2021/11/30 04:36:35;;;;;;;19.90;7.20;;;;;;;0.52;90.46;99244.80;102531;1316;22650;-56
2021/11/30 04:39:07;;;;;;;21.70;8.40;;;;;;;0.50;90.54;99239.91;102516;1324;24362;-55
2021/11/30 04:41:40;;;;;;;22.40;7.60;;;;;;;0.49;90.57;99238.60;102492;1317;24264;-55
2021/11/30 04:44:13;;;;;;;22.80;8.00;;;;;;;0.47;90.66;99238.52;102564;1316;23091;-53
2021/11/30 04:46:52;;;;;;;23.90;9.10;;;;;;;0.46;90.77;99237.91;102601;1317;24263;-54
2021/11/30 04:52:15;;;;;;;19.50;6.10;;;;;;;0.44;90.91;99228.48;102446;1316;23138;-53
2021/11/30 04:54:46;;;;;;;21.30;6.40;;;;;;;0.44;90.95;99230.91;102573;1318;26865;-54
2021/11/30 04:57:18;;;;;;;18.90;7.20;;;;;;;0.44;91.04;99229.55;102321;1317;25444;-52
2021/11/30 04:59:48;;;;;;;20.80;6.50;;;;;;;0.45;91.15;99228.92;102719;1317;24347;-54
2021/11/30 05:02:20;;;;;;;16.40;5.30;;;;;;;0.46;91.10;99227.71;102388;1321;25592;-53
2021/11/30 05:04:51;;;;;;;18.30;5.50;;;;;;;0.47;91.13;99230.05;102367;1318;22679;-55
2021/11/30 05:07:22;;;;;;;19.30;6.80;;;;;;;0.47;91.22;99231.98;102193;1317;388300;-55
2021/11/30 05:09:53;;;;;;;19.10;5.70;;;;;;;0.48;91.17;99234.06;102554;1316;24354;-57
2021/11/30 05:12:24;;;;;;;16.60;4.70;;;;;;;0.50;91.18;99232.23;102591;1317;25440;-53
2021/11/30 05:14:57;;;;;;;16.40;5.10;;;;;;;0.51;91.19;99232.19;102654;1323;22644;-55
2021/11/30 05:17:28;;;;;;;14.50;4.60;;;;;;;0.52;91.32;99229.98;102927;1321;25439;-52
2021/11/30 05:19:59;;;;;;;15.30;4.40;;;;;;;0.52;91.37;99224.46;102660;1322;23245;-56
2021/11/30 05:22:31;;;;;;;18.60;6.20;;;;;;;0.54;91.33;99226.77;102414;1318;22710;-53
2021/11/30 05:25:02;;;;;;;18.40;5.00;;;;;;;0.55;91.28;99223.84;102688;1316;22596;-55
2021/11/30 05:27:39;;;;;;;18.50;5.60;;;;;;;0.56;91.40;99222.48;102597;1316;25545;-57
2021/11/30 05:30:14;;;;;;;16.90;5.70;;;;;;;0.58;91.38;99221.70;102653;1319;22588;-56
2021/11/30 05:32:46;;;;;;;17.10;5.80;;;;;;;0.58;91.42;99217.41;102670;1316;25335;-56
2021/11/30 05:35:17;;;;;;;18.00;5.20;;;;;;;0.59;91.43;99215.42;102600;1317;23107;-53
2021/11/30 05:37:48;;;;;;;17.20;5.60;;;;;;;0.59;91.35;99215.25;102391;1316;25423;-52
2021/11/30 05:40:19;;;;;;;12.70;3.90;;;;;;;0.59;91.42;99211.88;102688;1316;26625;-54
2021/11/30 05:42:50;;;;;;;17.20;5.60;;;;;;;0.59;91.42;99207.80;102639;1317;25335;-53
2021/11/30 05:45:22;;;;;;;18.40;5.60;;;;;;;0.60;91.46;99201.73;102578;1316;22573;-56
2021/11/30 05:47:53;;;;;;;18.60;6.30;;;;;;;0.60;91.46;99201.50;102776;1321;24571;-53
2021/11/30 05:50:25;;;;;;;17.70;5.30;;;;;;;0.60;91.48;99198.45;102640;1318;23892;-54
2021/11/30 05:52:56;;;;;;;19.00;6.30;;;;;;;0.60;91.46;99193.09;102695;1316;22676;-56
2021/11/30 05:55:28;;;;;;;17.40;6.10;;;;;;;0.61;91.43;99184.20;102516;1316;25514;-59
2021/11/30 05:57:59;;;;;;;18.00;5.70;;;;;;;0.61;91.38;99179.03;102416;1317;23142;-56
2021/11/30 06:00:32;;;;;;;18.70;6.30;;;;;;;0.61;91.42;99176.43;102625;1317;22580;-53
2021/11/30 06:03:05;;;;;;;19.40;6.40;;;;;;;0.61;91.41;99176.20;102764;1315;22570;-53
2021/11/30 06:05:37;;;;;;;17.80;5.10;;;;;;;0.62;91.41;99173.97;102622;1322;22689;-54
2021/11/30 06:08:08;;;;;;;21.70;5.70;;;;;;;0.63;91.44;99173.55;102506;1316;25277;-53
2021/11/30 06:10:39;;;;;;;20.00;6.30;;;;;;;0.62;91.41;99169.64;102732;1322;24310;-53
2021/11/30 06:13:11;;;;;;;19.80;6.50;;;;;;;0.63;91.29;99164.52;102725;1316;25524;-55
2021/11/30 06:15:42;;;;;;;20.80;6.90;;;;;;;0.63;91.13;99156.75;102690;1317;22797;-56
2021/11/30 06:18:14;;;;;;;21.20;7.40;;;;;;;0.63;91.04;99145.14;102622;1316;24221;-53
2021/11/30 06:20:47;;;;;;;17.60;6.50;;;;;;;0.61;90.85;99144.27;102592;1323;24346;-56
2021/11/30 06:23:19;;;;;;;21.10;7.00;;;;;;;0.59;90.80;99141.58;102461;1316;23004;-53
2021/11/30 06:25:50;;;;;;;21.10;6.70;;;;;;;0.57;90.65;99135.21;102600;1321;22579;-56
2021/11/30 06:28:21;;;;;;;18.00;6.10;;;;;;;0.55;90.54;99135.02;102531;1316;22675;-57
2021/11/30 06:30:52;;;;;;;25.00;7.50;;;;;;;0.55;90.40;99141.31;103355;1316;22577;-58
2021/11/30 06:33:23;;;;;;;22.50;7.10;;;;;;;0.54;90.27;99138.73;102588;1321;24321;-55
2021/11/30 06:35:55;;;;;;;24.00;7.60;;;;;;;0.54;90.11;99131.52;102489;1323;22619;-58
2021/11/30 06:38:26;;;;;;;20.70;7.00;;;;;;;0.55;90.23;99131.17;102625;1316;22597;-59
2021/11/30 06:40:57;;;;;;;24.90;9.20;;;;;;;0.55;90.09;99127.80;102441;1318;22776;-56
2021/11/30 06:43:29;;;;;;;22.60;8.30;;;;;;;0.56;90.13;99126.28;102739;1316;22688;-57
2021/11/30 06:46:00;;;;;;;25.30;8.40;;;;;;;0.56;90.11;99129.59;102396;1316;24293;-57
2021/11/30 06:48:31;;;;;;;24.70;9.00;;;;;;;0.57;90.19;99129.72;102712;1318;22591;-60
2021/11/30 06:51:02;;;;;;;22.00;8.10;;;;;;;0.57;90.14;99129.85;102592;1316;25560;-58
2021/11/30 06:53:34;;;;;;;26.50;10.50;;;;;;;0.58;90.25;99124.17;102201;1316;24328;-55
2021/11/30 06:56:06;;;;;;;23.40;8.40;;;;;;;0.59;90.28;99119.52;102639;1316;25358;-57
2021/11/30 06:58:38;;;;;;;26.80;10.60;;;;;;;0.60;90.31;99113.29;102406;1317;22633;-57
2021/11/30 07:01:12;;;;;;;22.30;9.10;;;;;;;0.62;90.27;99113.05;102497;1317;22728;-58
2021/11/30 07:03:44;;;;;;;23.30;8.50;;;;;;;0.62;90.24;99111.02;102352;1316;26616;-56
2021/11/30 07:06:23;;;;;;;26.50;8.70;;;;;;;0.63;90.33;99105.20;103143;1316;22620;-55
2021/11/30 07:09:03;;;;;;;23.90;8.20;;;;;;;0.64;90.23;99104.29;102380;1322;24585;-56
2021/11/30 07:11:54;;;;;;;27.20;9.40;;;;;;;0.65;90.37;99093.84;102486;1317;24561;-55
2021/11/30 07:14:27;;;;;;;27.40;8.50;;;;;;;0.66;90.21;99089.65;103312;1317;22705;-56
2021/11/30 07:16:58;;;;;;;30.90;10.10;;;;;;;0.66;90.19;99085.00;106316;1319;22409;-57
2021/11/30 07:19:31;;;;;;;22.60;8.20;;;;;;;0.68;90.21;99077.81;106283;1316;22442;-58
2021/11/30 07:22:02;;;;;;;21.50;7.60;;;;;;;0.69;90.10;99074.79;104781;1317;25573;-57
2021/11/30 07:24:34;;;;;;;23.50;9.10;;;;;;;0.71;90.03;99068.83;102879;1317;25331;-54
2021/11/30 07:27:06;;;;;;;21.10;7.60;;;;;;;0.74;90.11;99065.23;102709;1321;24164;-55
2021/11/30 07:29:37;;;;;;;24.70;8.60;;;;;;;0.76;90.13;99065.96;102792;1324;22760;-54
2021/11/30 07:32:09;;;;;;;26.20;9.30;;;;;;;0.80;90.15;99059.38;102579;1317;23961;-56
2021/11/30 07:34:41;;;;;;;26.50;10.10;;;;;;;0.86;90.15;99052.84;102592;1319;22659;-57
2021/11/30 07:37:12;;;;;;;23.50;7.80;;;;;;;0.90;90.03;99043.11;102571;1316;22601;-56
2021/11/30 07:39:43;;;;;;;22.30;8.20;;;;;;;0.94;89.99;99039.38;102496;1316;25214;-55
2021/11/30 07:42:14;;;;;;;30.10;9.90;;;;;;;0.97;89.89;99029.63;102941;1318;22672;-57
2021/11/30 07:44:45;;;;;;;28.10;9.60;;;;;;;1.00;89.78;99026.36;102835;1315;22982;-53
2021/11/30 07:47:17;;;;;;;27.90;8.80;;;;;;;1.03;89.65;99017.56;102526;1316;23228;-56
2021/11/30 07:49:48;;;;;;;30.10;10.30;;;;;;;1.03;89.32;99010.02;102615;1316;22600;-56
2021/11/30 07:52:19;;;;;;;34.00;10.50;;;;;;;1.05;89.20;99005.17;102778;1317;25413;-56
2021/11/30 07:54:52;;;;;;;24.50;8.30;;;;;;;1.05;89.14;99001.61;102614;1316;24192;-57
2021/11/30 07:57:23;;;;;;;27.90;9.00;;;;;;;1.09;89.11;99005.66;102928;1316;22607;-57
2021/11/30 07:59:55;;;;;;;24.20;7.60;;;;;;;1.12;89.16;98999.17;102527;1318;23184;-57
2021/11/30 08:02:27;;;;;;;19.70;7.00;;;;;;;1.14;88.93;98997.98;102821;1316;25528;-56
2021/11/30 08:04:58;;;;;;;21.90;8.70;;;;;;;1.17;88.77;99000.67;102524;1316;24306;-56
2021/11/30 08:07:29;;;;;;;22.70;7.90;;;;;;;1.18;88.81;98993.69;102929;1316;24298;-56
2021/11/30 08:10:01;;;;;;;21.00;7.90;;;;;;;1.22;88.61;98982.89;102606;1316;22714;-56
2021/11/30 08:12:33;;;;;;;20.70;7.30;;;;;;;1.26;88.69;98979.83;102554;1316;26011;-56
2021/11/30 08:15:06;;;;;;;21.00;7.20;;;;;;;1.31;88.62;98974.34;102398;1321;24230;-53
2021/11/30 08:17:37;;;;;;;16.10;4.50;;;;;;;1.34;88.45;98975.92;102487;1317;22709;-57
2021/11/30 08:20:10;;;;;;;16.20;5.00;;;;;;;1.37;88.15;98970.46;102514;1316;22723;-56
2021/11/30 08:22:43;;;;;;;20.10;6.30;;;;;;;1.40;87.95;98969.91;103226;1316;23232;-57
2021/11/30 08:25:16;;;;;;;18.50;5.90;;;;;;;1.43;87.76;98959.80;104868;1318;24256;-53
2021/11/30 08:27:47;;;;;;;17.30;4.80;;;;;;;1.47;87.86;98954.55;102554;1320;25235;-57
2021/11/30 08:30:19;;;;;;;14.30;4.10;;;;;;;1.51;87.73;98936.59;102843;1316;22629;-57
2021/11/30 08:32:50;;;;;;;16.20;4.60;;;;;;;1.54;87.58;98933.02;102571;1321;22594;-55
2021/11/30 08:35:22;;;;;;;13.70;4.60;;;;;;;1.56;87.34;98928.11;102657;1316;26657;-54
2021/11/30 08:37:54;;;;;;;15.90;4.30;;;;;;;1.58;87.33;98920.89;102650;1316;25329;-56
2021/11/30 08:40:26;;;;;;;15.60;5.00;;;;;;;1.62;87.34;98918.65;102528;1322;22613;-56
2021/11/30 08:42:58;;;;;;;19.80;6.10;;;;;;;1.64;87.22;98912.11;102953;1316;22613;-57
2021/11/30 08:45:29;;;;;;;19.70;6.80;;;;;;;1.67;87.21;98909.57;102669;1316;25368;-57
2021/11/30 08:48:01;;;;;;;17.40;4.70;;;;;;;1.71;86.92;98898.52;102537;1316;23087;-55
2021/11/30 08:50:33;;;;;;;17.60;5.00;;;;;;;1.72;86.90;98900.60;102579;1317;25325;-54
2021/11/30 08:53:05;;;;;;;17.90;5.40;;;;;;;1.74;86.71;98897.61;102722;1316;22587;-53
2021/11/30 08:55:37;;;;;;;19.50;5.80;;;;;;;1.75;86.51;98893.86;102404;1317;22611;-57
2021/11/30 08:58:09;;;;;;;15.80;4.00;;;;;;;1.77;86.53;98893.38;102571;1318;25271;-56
2021/11/30 09:00:41;;;;;;;13.70;3.30;;;;;;;1.79;86.24;98896.99;102436;1317;22550;-57
2021/11/30 09:03:12;;;;;;;12.70;3.50;;;;;;;1.79;85.87;98894.40;102474;1322;22651;-56
2021/11/30 09:05:43;;;;;;;15.30;3.50;;;;;;;1.79;85.78;98888.83;102490;1322;23982;-55
2021/11/30 09:08:16;;;;;;;13.70;4.80;;;;;;;1.79;85.95;98883.23;102481;1316;25363;-57
2021/11/30 09:10:47;;;;;;;13.30;3.10;;;;;;;1.79;85.86;98877.98;102713;1317;25356;-56
2021/11/30 09:13:18;;;;;;;13.10;3.20;;;;;;;1.77;85.64;98868.22;102553;1315;22662;-57
2021/11/30 09:15:50;;;;;;;13.50;4.60;;;;;;;1.77;85.81;98856.70;102431;1316;24606;-56
2021/11/30 09:18:21;;;;;;;14.00;4.70;;;;;;;1.75;85.68;98848.11;102702;1316;22600;-55
2021/11/30 09:20:53;;;;;;;12.20;3.80;;;;;;;1.76;85.93;98835.20;102538;1317;22666;-55
2021/11/30 09:23:24;;;;;;;13.60;3.90;;;;;;;1.76;85.62;98826.91;102452;1316;22586;-58
2021/11/30 09:25:57;;;;;;;11.90;3.90;;;;;;;1.76;85.59;98813.46;102538;1316;25693;-56
2021/11/30 09:28:28;;;;;;;11.80;3.10;;;;;;;1.77;85.66;98813.69;102440;1317;22599;-54
2021/11/30 09:30:59;;;;;;;13.40;3.70;;;;;;;1.79;85.67;98803.30;102489;1316;24037;-58
2021/11/30 09:33:31;;;;;;;11.30;3.30;;;;;;;1.80;85.50;98791.32;102708;1318;22587;-55
2021/11/30 09:36:02;;;;;;;12.30;3.20;;;;;;;1.81;85.06;98777.02;102496;1317;22609;-57
2021/11/30 09:38:34;;;;;;;14.00;3.40;;;;;;;1.83;85.22;98767.04;102354;1318;22596;-56
2021/11/30 09:41:07;;;;;;;15.40;3.90;;;;;;;1.85;84.87;98756.20;102442;1317;22576;-54
2021/11/30 09:43:39;;;;;;;15.20;4.70;;;;;;;1.88;85.10;98747.76;102445;1314;24302;-56
2021/11/30 09:46:11;;;;;;;16.40;4.50;;;;;;;1.90;84.99;98735.92;102412;1315;22672;-57
2021/11/30 09:48:42;;;;;;;17.70;4.50;;;;;;;1.92;84.86;98729.43;102543;1319;25257;-55
2021/11/30 09:51:16;;;;;;;16.60;4.60;;;;;;;1.93;84.84;98717.95;102501;1319;22593;-57
2021/11/30 09:53:48;;;;;;;13.80;3.60;;;;;;;1.96;84.86;98715.73;102927;1317;24326;-57
2021/11/30 09:56:20;;;;;;;18.00;3.90;;;;;;;1.98;84.98;98709.34;102583;1315;24314;-57
2021/11/30 09:58:52;;;;;;;14.10;4.10;;;;;;;2.02;85.11;98700.50;102574;1315;26338;-57
2021/11/30 10:01:24;;;;;;;16.50;4.20;;;;;;;2.04;84.81;98691.63;103036;1318;24265;-57
2021/11/30 10:03:55;;;;;;;14.90;5.00;;;;;;;2.05;84.59;98680.73;102765;1315;22579;-56
2021/11/30 10:06:26;;;;;;;16.70;4.30;;;;;;;2.08;84.58;98678.79;102398;1316;22574;-57
2021/11/30 10:08:59;;;;;;;16.50;4.60;;;;;;;2.11;84.74;98666.80;102493;1321;22572;-54
2021/11/30 10:11:38;;;;;;;11.30;3.10;;;;;;;2.12;84.48;98653.34;102965;1318;25383;-56
2021/11/30 10:14:23;;;;;;;14.90;4.60;;;;;;;2.13;83.81;98642.23;102652;1315;22589;-54
2021/11/30 10:17:19;;;;;;;17.70;5.30;;;;;;;2.13;84.09;98631.04;101989;1318;22728;-57
2021/11/30 10:19:59;;;;;;;13.30;3.70;;;;;;;2.15;83.88;98616.16;104273;1317;22642;-57
2021/11/30 10:22:42;;;;;;;15.00;3.20;;;;;;;2.15;83.84;98607.42;102324;1318;24214;-55
2021/11/30 10:25:18;;;;;;;11.60;3.60;;;;;;;2.18;84.06;98593.29;102429;1317;25330;-55
2021/11/30 10:27:51;;;;;;;12.00;3.90;;;;;;;2.21;83.92;98582.79;102534;1317;22617;-55
2021/11/30 10:30:25;;;;;;;10.50;2.90;;;;;;;2.24;83.91;98572.44;102445;1315;26698;-57
2021/11/30 10:32:59;;;;;;;10.30;3.00;;;;;;;2.25;83.54;98558.86;102933;1316;22587;-54
2021/11/30 10:35:31;;;;;;;10.10;2.90;;;;;;;2.27;83.74;98544.75;102727;1316;24424;-56
2021/11/30 10:38:06;;;;;;;10.70;2.60;;;;;;;2.28;83.51;98541.92;102687;1315;22570;-57
2021/11/30 10:40:40;;;;;;;13.30;3.30;;;;;;;2.29;83.63;98531.42;102608;1321;22608;-56
2021/11/30 10:43:13;;;;;;;14.70;3.70;;;;;;;2.31;83.84;98522.91;102610;1318;24036;-58
2021/11/30 10:45:46;;;;;;;12.20;2.90;;;;;;;2.32;83.89;98508.63;102573;1319;22611;-58
2021/11/30 10:48:20;;;;;;;14.00;3.90;;;;;;;2.32;83.80;98501.70;102582;1316;25503;-57
2021/11/30 10:50:54;;;;;;;16.20;4.40;;;;;;;2.32;83.77;98490.48;102905;1319;22600;-57
2021/11/30 10:53:27;;;;;;;10.50;2.70;;;;;;;2.31;84.05;98479.71;102864;1316;24320;-56
2021/11/30 10:56:00;;;;;;;12.50;3.40;;;;;;;2.32;83.86;98471.75;102546;1316;22586;-60
2021/11/30 10:58:33;;;;;;;10.60;2.90;;;;;;;2.31;83.80;98463.60;102474;1317;22596;-56
2021/11/30 11:01:09;;;;;;;10.30;3.20;;;;;;;2.31;83.65;98461.02;102474;1315;22580;-57
2021/11/30 11:03:41;;;;;;;13.40;3.60;;;;;;;2.30;83.91;98450.99;106329;1315;22398;-57
2021/11/30 11:06:31;;;;;;;10.60;1.90;;;;;;;2.29;83.99;98439.72;102490;1315;22582;-57
2021/11/30 11:09:04;;;;;;;12.80;3.30;;;;;;;2.28;83.86;98428.02;102627;1318;22573;-57
2021/11/30 11:11:37;;;;;;;14.40;4.50;;;;;;;2.28;84.02;98419.61;102747;1319;24324;-56
2021/11/30 11:14:20;;;;;;;11.70;3.90;;;;;;;2.27;83.80;98410.88;102761;1315;24763;-55
2021/11/30 11:16:53;;;;;;;13.90;3.80;;;;;;;2.25;83.74;98408.38;102562;1314;22739;-57
2021/11/30 11:19:41;;;;;;;12.50;3.20;;;;;;;2.24;83.98;98404.61;102895;1317;22650;-56
2021/11/30 11:22:20;;;;;;;14.00;3.80;;;;;;;2.23;83.95;98399.09;102631;1318;25399;-56
2021/11/30 11:24:52;;;;;;;13.40;3.80;;;;;;;2.22;84.21;98394.69;102592;1318;25376;-56
2021/11/30 11:27:34;;;;;;;14.80;3.40;;;;;;;2.22;84.34;98387.50;102810;1317;25420;-56
2021/11/30 11:30:07;;;;;;;13.40;3.80;;;;;;;2.21;84.25;98383.87;102559;1322;22607;-58
2021/11/30 11:32:39;;;;;;;13.30;3.30;;;;;;;2.21;84.40;98369.61;102676;1316;24212;-56
2021/11/30 11:35:15;;;;;;;13.40;3.10;;;;;;;2.21;84.27;98358.23;102632;1317;25296;-57
2021/11/30 11:37:48;;;;;;;9.00;2.60;;;;;;;2.20;84.31;98352.05;102675;1316;23950;-57
2021/11/30 11:40:19;;;;;;;12.20;2.00;;;;;;;2.20;84.29;98343.16;102693;1316;22645;-56
2021/11/30 11:42:55;;;;;;;8.40;1.60;;;;;;;2.18;84.17;98333.40;102710;1321;26887;-56
2021/11/30 11:45:27;;;;;;;5.30;1.40;;;;;;;2.18;84.23;98325.80;102799;1318;22586;-56
2021/11/30 11:48:07;;;;;;;4.10;1.10;;;;;;;2.18;84.39;98319.58;102861;1320;23047;-56
2021/11/30 11:50:57;;;;;;;6.10;1.30;;;;;;;2.17;84.51;98307.15;102755;1317;22681;-55
2021/11/30 11:53:31;;;;;;;6.40;1.30;;;;;;;2.14;84.47;98300.92;102821;1317;24255;-57
2021/11/30 11:56:18;;;;;;;7.70;1.30;;;;;;;2.11;84.64;98299.11;102741;1318;24286;-57
2021/11/30 11:58:52;;;;;;;6.90;1.50;;;;;;;2.06;84.81;98296.15;102560;1316;22669;-53
2021/11/30 12:01:25;;;;;;;7.80;1.00;;;;;;;2.02;84.64;98292.48;102733;1317;22569;-55